sensor_id;sensor_type;location;lat;lon;timestamp;temperature;humidity
20489;DHT22;10403;54.092;12.122;2022-09-03T00:00:25;16.40;90.70
20489;DHT22;10403;54.092;12.122;2022-09-03T00:12:10;16.50;90.80
20489;DHT22;10403;54.092;12.122;2022-09-03T00:14:56;16.50;90.80
20489;DHT22;10403;54.092;12.122;2022-09-03T00:17:41;16.50;90.80
20489;DHT22;10403;54.092;12.122;2022-09-03T00:20:29;16.50;90.80
20489;DHT22;10403;54.092;12.122;2022-09-03T00:23:04;16.50;90.80
20489;DHT22;10403;54.092;12.122;2022-09-03T00:25:48;16.50;90.80
20489;DHT22;10403;54.092;12.122;2022-09-03T00:28:23;16.50;90.80
20489;DHT22;10403;54.092;12.122;2022-09-03T00:31:06;16.60;90.90
20489;DHT22;10403;54.092;12.122;2022-09-03T00:33:45;16.60;90.90
20489;DHT22;10403;54.092;12.122;2022-09-03T00:36:19;16.60;90.90
20489;DHT22;10403;54.092;12.122;2022-09-03T00:38:51;16.60;90.90
20489;DHT22;10403;54.092;12.122;2022-09-03T00:56:47;16.60;90.70
20489;DHT22;10403;54.092;12.122;2022-09-03T01:05:10;16.60;90.60
20489;DHT22;10403;54.092;12.122;2022-09-03T01:08:10;16.60;90.60
20489;DHT22;10403;54.092;12.122;2022-09-03T01:13:40;16.60;90.50
20489;DHT22;10403;54.092;12.122;2022-09-03T01:16:37;16.60;90.40
20489;DHT22;10403;54.092;12.122;2022-09-03T01:30:41;16.60;90.30
20489;DHT22;10403;54.092;12.122;2022-09-03T01:33:43;16.60;90.30
20489;DHT22;10403;54.092;12.122;2022-09-03T01:39:04;16.50;90.20
20489;DHT22;10403;54.092;12.122;2022-09-03T01:44:50;16.60;90.30
20489;DHT22;10403;54.092;12.122;2022-09-03T01:50:47;16.60;90.20
20489;DHT22;10403;54.092;12.122;2022-09-03T01:57:13;16.60;90.20
20489;DHT22;10403;54.092;12.122;2022-09-03T02:00:14;16.50;90.10
20489;DHT22;10403;54.092;12.122;2022-09-03T02:02:50;16.50;90.10
20489;DHT22;10403;54.092;12.122;2022-09-03T02:05:23;16.50;90.00
20489;DHT22;10403;54.092;12.122;2022-09-03T02:07:58;16.50;90.00
20489;DHT22;10403;54.092;12.122;2022-09-03T02:13:09;16.50;90.00
20489;DHT22;10403;54.092;12.122;2022-09-03T02:15:44;16.50;89.90
20489;DHT22;10403;54.092;12.122;2022-09-03T02:18:24;16.50;89.80
20489;DHT22;10403;54.092;12.122;2022-09-03T02:20:56;16.50;89.80
20489;DHT22;10403;54.092;12.122;2022-09-03T02:23:25;16.50;89.70
20489;DHT22;10403;54.092;12.122;2022-09-03T02:25:57;16.50;89.60
20489;DHT22;10403;54.092;12.122;2022-09-03T02:28:31;16.50;89.50
20489;DHT22;10403;54.092;12.122;2022-09-03T02:30:59;16.50;89.40
20489;DHT22;10403;54.092;12.122;2022-09-03T02:33:26;16.50;89.30
20489;DHT22;10403;54.092;12.122;2022-09-03T02:35:54;16.50;89.20
20489;DHT22;10403;54.092;12.122;2022-09-03T02:38:23;16.60;89.10
20489;DHT22;10403;54.092;12.122;2022-09-03T02:41:10;16.60;89.00
20489;DHT22;10403;54.092;12.122;2022-09-03T02:43:41;16.50;88.70
20489;DHT22;10403;54.092;12.122;2022-09-03T02:46:20;16.50;88.60
20489;DHT22;10403;54.092;12.122;2022-09-03T02:48:55;16.50;88.50
20489;DHT22;10403;54.092;12.122;2022-09-03T02:51:22;16.50;88.30
20489;DHT22;10403;54.092;12.122;2022-09-03T02:53:50;16.50;88.30
20489;DHT22;10403;54.092;12.122;2022-09-03T02:56:17;16.50;88.20
20489;DHT22;10403;54.092;12.122;2022-09-03T02:58:44;16.50;88.20
20489;DHT22;10403;54.092;12.122;2022-09-03T03:01:11;16.50;88.10
20489;DHT22;10403;54.092;12.122;2022-09-03T03:03:49;16.50;88.00
20489;DHT22;10403;54.092;12.122;2022-09-03T03:06:17;16.50;88.00
20489;DHT22;10403;54.092;12.122;2022-09-03T03:08:47;16.50;88.00
20489;DHT22;10403;54.092;12.122;2022-09-03T03:11:17;16.40;87.90
20489;DHT22;10403;54.092;12.122;2022-09-03T03:13:46;16.40;87.90
20489;DHT22;10403;54.092;12.122;2022-09-03T03:16:14;16.40;87.90
20489;DHT22;10403;54.092;12.122;2022-09-03T03:18:43;16.40;87.90
20489;DHT22;10403;54.092;12.122;2022-09-03T03:21:15;16.40;87.90
20489;DHT22;10403;54.092;12.122;2022-09-03T03:23:43;16.40;87.90
20489;DHT22;10403;54.092;12.122;2022-09-03T03:26:14;16.30;87.90
20489;DHT22;10403;54.092;12.122;2022-09-03T03:28:48;16.30;87.90
20489;DHT22;10403;54.092;12.122;2022-09-03T03:31:18;16.30;87.90
20489;DHT22;10403;54.092;12.122;2022-09-03T03:33:52;16.20;87.80
20489;DHT22;10403;54.092;12.122;2022-09-03T03:36:22;16.30;88.00
20489;DHT22;10403;54.092;12.122;2022-09-03T03:38:53;16.30;87.90
20489;DHT22;10403;54.092;12.122;2022-09-03T03:41:28;16.30;87.90
20489;DHT22;10403;54.092;12.122;2022-09-03T03:44:02;16.30;87.90
20489;DHT22;10403;54.092;12.122;2022-09-03T03:46:33;16.30;87.90
20489;DHT22;10403;54.092;12.122;2022-09-03T03:49:03;16.30;87.90
20489;DHT22;10403;54.092;12.122;2022-09-03T03:51:33;16.30;87.90
20489;DHT22;10403;54.092;12.122;2022-09-03T03:54:01;16.20;87.70
20489;DHT22;10403;54.092;12.122;2022-09-03T03:56:31;16.20;87.70
20489;DHT22;10403;54.092;12.122;2022-09-03T03:59:00;16.20;87.60
20489;DHT22;10403;54.092;12.122;2022-09-03T04:01:28;16.20;87.50
20489;DHT22;10403;54.092;12.122;2022-09-03T04:03:57;16.20;87.50
20489;DHT22;10403;54.092;12.122;2022-09-03T04:06:27;16.20;87.60
20489;DHT22;10403;54.092;12.122;2022-09-03T04:08:54;16.20;87.40
20489;DHT22;10403;54.092;12.122;2022-09-03T04:11:23;16.20;87.20
20489;DHT22;10403;54.092;12.122;2022-09-03T04:13:51;16.10;87.10
20489;DHT22;10403;54.092;12.122;2022-09-03T04:16:23;16.10;87.00
20489;DHT22;10403;54.092;12.122;2022-09-03T04:18:56;16.10;87.00
20489;DHT22;10403;54.092;12.122;2022-09-03T04:21:25;16.10;86.90
20489;DHT22;10403;54.092;12.122;2022-09-03T04:23:55;16.10;86.90
20489;DHT22;10403;54.092;12.122;2022-09-03T04:26:26;16.10;87.50
20489;DHT22;10403;54.092;12.122;2022-09-03T04:28:58;16.00;86.70
20489;DHT22;10403;54.092;12.122;2022-09-03T04:31:29;16.00;86.60
20489;DHT22;10403;54.092;12.122;2022-09-03T04:33:57;16.10;86.70
20489;DHT22;10403;54.092;12.122;2022-09-03T04:36:27;16.00;86.50
20489;DHT22;10403;54.092;12.122;2022-09-03T04:38:58;16.10;86.60
20489;DHT22;10403;54.092;12.122;2022-09-03T04:41:28;16.00;86.40
20489;DHT22;10403;54.092;12.122;2022-09-03T04:43:57;16.10;86.50
20489;DHT22;10403;54.092;12.122;2022-09-03T04:46:27;16.10;86.40
20489;DHT22;10403;54.092;12.122;2022-09-03T04:48:59;16.10;86.40
20489;DHT22;10403;54.092;12.122;2022-09-03T04:51:27;16.10;86.20
20489;DHT22;10403;54.092;12.122;2022-09-03T04:53:57;16.10;86.30
20489;DHT22;10403;54.092;12.122;2022-09-03T04:56:29;16.10;86.00
20489;DHT22;10403;54.092;12.122;2022-09-03T04:58:59;16.20;85.90
20489;DHT22;10403;54.092;12.122;2022-09-03T05:01:33;16.20;85.80
20489;DHT22;10403;54.092;12.122;2022-09-03T05:04:02;16.20;85.70
20489;DHT22;10403;54.092;12.122;2022-09-03T05:06:31;16.10;85.40
20489;DHT22;10403;54.092;12.122;2022-09-03T05:09:00;16.10;85.20
20489;DHT22;10403;54.092;12.122;2022-09-03T05:11:28;16.10;85.20
20489;DHT22;10403;54.092;12.122;2022-09-03T05:13:57;16.10;85.10
20489;DHT22;10403;54.092;12.122;2022-09-03T05:16:26;16.20;85.10
20489;DHT22;10403;54.092;12.122;2022-09-03T05:18:57;16.20;85.00
20489;DHT22;10403;54.092;12.122;2022-09-03T05:21:26;16.20;85.60
20489;DHT22;10403;54.092;12.122;2022-09-03T05:23:54;16.30;85.00
20489;DHT22;10403;54.092;12.122;2022-09-03T05:26:27;16.40;84.90
20489;DHT22;10403;54.092;12.122;2022-09-03T05:28:58;16.40;84.50
20489;DHT22;10403;54.092;12.122;2022-09-03T05:31:28;16.40;84.40
20489;DHT22;10403;54.092;12.122;2022-09-03T05:33:58;16.50;84.20
20489;DHT22;10403;54.092;12.122;2022-09-03T05:36:34;16.60;84.00
20489;DHT22;10403;54.092;12.122;2022-09-03T05:39:04;16.70;83.80
20489;DHT22;10403;54.092;12.122;2022-09-03T05:41:32;16.70;83.60
20489;DHT22;10403;54.092;12.122;2022-09-03T05:44:00;16.80;83.50
20489;DHT22;10403;54.092;12.122;2022-09-03T05:46:29;16.90;83.30
20489;DHT22;10403;54.092;12.122;2022-09-03T05:49:04;16.90;83.10
20489;DHT22;10403;54.092;12.122;2022-09-03T05:51:34;16.90;82.80
20489;DHT22;10403;54.092;12.122;2022-09-03T05:54:02;16.90;82.50
20489;DHT22;10403;54.092;12.122;2022-09-03T05:56:31;16.90;82.20
20489;DHT22;10403;54.092;12.122;2022-09-03T05:59:01;17.00;82.30
20489;DHT22;10403;54.092;12.122;2022-09-03T06:01:34;16.90;82.00
20489;DHT22;10403;54.092;12.122;2022-09-03T06:04:06;16.80;81.90
20489;DHT22;10403;54.092;12.122;2022-09-03T06:06:36;16.80;82.00
20489;DHT22;10403;54.092;12.122;2022-09-03T06:09:09;16.70;82.20
20489;DHT22;10403;54.092;12.122;2022-09-03T06:11:39;16.70;82.30
20489;DHT22;10403;54.092;12.122;2022-09-03T06:14:10;16.70;82.20
20489;DHT22;10403;54.092;12.122;2022-09-03T06:16:41;16.70;82.30
20489;DHT22;10403;54.092;12.122;2022-09-03T06:19:15;16.70;82.30
20489;DHT22;10403;54.092;12.122;2022-09-03T06:21:44;16.70;82.30
20489;DHT22;10403;54.092;12.122;2022-09-03T06:24:17;16.70;82.30
20489;DHT22;10403;54.092;12.122;2022-09-03T06:26:52;16.70;82.30
20489;DHT22;10403;54.092;12.122;2022-09-03T06:29:19;16.60;82.20
20489;DHT22;10403;54.092;12.122;2022-09-03T06:31:46;16.70;82.40
20489;DHT22;10403;54.092;12.122;2022-09-03T06:34:17;16.70;82.50
20489;DHT22;10403;54.092;12.122;2022-09-03T06:36:48;16.70;82.40
20489;DHT22;10403;54.092;12.122;2022-09-03T06:39:15;16.70;82.40
20489;DHT22;10403;54.092;12.122;2022-09-03T06:41:42;16.70;82.40
20489;DHT22;10403;54.092;12.122;2022-09-03T06:44:09;16.70;83.10
20489;DHT22;10403;54.092;12.122;2022-09-03T06:46:39;16.70;82.40
20489;DHT22;10403;54.092;12.122;2022-09-03T06:49:10;16.70;82.50
20489;DHT22;10403;54.092;12.122;2022-09-03T06:51:38;16.80;82.60
20489;DHT22;10403;54.092;12.122;2022-09-03T06:54:07;16.80;82.50
20489;DHT22;10403;54.092;12.122;2022-09-03T06:56:37;16.90;82.50
20489;DHT22;10403;54.092;12.122;2022-09-03T06:59:12;16.90;82.50
20489;DHT22;10403;54.092;12.122;2022-09-03T07:01:41;16.90;82.40
20489;DHT22;10403;54.092;12.122;2022-09-03T07:04:13;17.00;82.50
20489;DHT22;10403;54.092;12.122;2022-09-03T07:06:45;17.10;82.30
20489;DHT22;10403;54.092;12.122;2022-09-03T07:09:12;17.10;82.30
20489;DHT22;10403;54.092;12.122;2022-09-03T07:11:41;17.20;82.20
20489;DHT22;10403;54.092;12.122;2022-09-03T07:14:15;17.40;82.00
20489;DHT22;10403;54.092;12.122;2022-09-03T07:16:44;17.50;81.60
20489;DHT22;10403;54.092;12.122;2022-09-03T07:19:12;17.50;81.40
20489;DHT22;10403;54.092;12.122;2022-09-03T07:21:41;17.60;81.20
20489;DHT22;10403;54.092;12.122;2022-09-03T07:24:15;17.70;80.90
20489;DHT22;10403;54.092;12.122;2022-09-03T07:26:43;17.80;80.60
20489;DHT22;10403;54.092;12.122;2022-09-03T07:29:12;17.80;80.40
20489;DHT22;10403;54.092;12.122;2022-09-03T07:31:44;17.90;80.20
20489;DHT22;10403;54.092;12.122;2022-09-03T07:34:12;17.90;79.80
20489;DHT22;10403;54.092;12.122;2022-09-03T07:36:43;18.00;79.80
20489;DHT22;10403;54.092;12.122;2022-09-03T07:39:15;18.00;79.80
20489;DHT22;10403;54.092;12.122;2022-09-03T07:41:44;18.10;79.60
20489;DHT22;10403;54.092;12.122;2022-09-03T07:44:13;18.20;79.40
20489;DHT22;10403;54.092;12.122;2022-09-03T07:46:45;18.20;79.00
20489;DHT22;10403;54.092;12.122;2022-09-03T07:49:14;18.20;78.60
20489;DHT22;10403;54.092;12.122;2022-09-03T07:51:41;18.10;78.50
20489;DHT22;10403;54.092;12.122;2022-09-03T07:54:09;18.20;78.60
20489;DHT22;10403;54.092;12.122;2022-09-03T07:56:38;18.30;78.50
20489;DHT22;10403;54.092;12.122;2022-09-03T07:59:07;18.30;78.20
20489;DHT22;10403;54.092;12.122;2022-09-03T08:01:37;18.40;77.90
20489;DHT22;10403;54.092;12.122;2022-09-03T08:04:07;18.50;77.90
20489;DHT22;10403;54.092;12.122;2022-09-03T08:06:37;18.50;77.60
20489;DHT22;10403;54.092;12.122;2022-09-03T08:09:08;18.50;77.60
20489;DHT22;10403;54.092;12.122;2022-09-03T08:11:39;18.60;77.50
20489;DHT22;10403;54.092;12.122;2022-09-03T08:14:11;18.60;77.20
20489;DHT22;10403;54.092;12.122;2022-09-03T08:16:44;18.70;77.20
20489;DHT22;10403;54.092;12.122;2022-09-03T08:19:16;18.70;76.90
20489;DHT22;10403;54.092;12.122;2022-09-03T08:21:44;18.80;76.90
20489;DHT22;10403;54.092;12.122;2022-09-03T08:24:13;18.90;76.80
20489;DHT22;10403;54.092;12.122;2022-09-03T08:26:41;19.00;76.50
20489;DHT22;10403;54.092;12.122;2022-09-03T08:29:17;19.00;76.10
20489;DHT22;10403;54.092;12.122;2022-09-03T08:31:44;19.10;75.90
20489;DHT22;10403;54.092;12.122;2022-09-03T08:34:12;19.10;75.40
20489;DHT22;10403;54.092;12.122;2022-09-03T08:36:40;19.20;75.00
20489;DHT22;10403;54.092;12.122;2022-09-03T08:39:09;19.20;74.50
20489;DHT22;10403;54.092;12.122;2022-09-03T08:56:23;19.50;73.00
20489;DHT22;10403;54.092;12.122;2022-09-03T08:58:54;19.50;72.80
20489;DHT22;10403;54.092;12.122;2022-09-03T09:07:48;19.70;71.10
20489;DHT22;10403;54.092;12.122;2022-09-03T09:10:36;19.70;70.50
20489;DHT22;10403;54.092;12.122;2022-09-03T09:13:26;19.70;70.30
20489;DHT22;10403;54.092;12.122;2022-09-03T09:16:07;19.80;70.40
20489;DHT22;10403;54.092;12.122;2022-09-03T09:19:08;19.80;69.80
20489;DHT22;10403;54.092;12.122;2022-09-03T09:21:59;19.90;69.30
20489;DHT22;10403;54.092;12.122;2022-09-03T09:24:40;19.90;69.10
20489;DHT22;10403;54.092;12.122;2022-09-03T09:27:13;20.00;68.50
20489;DHT22;10403;54.092;12.122;2022-09-03T09:29:49;20.00;67.60
20489;DHT22;10403;54.092;12.122;2022-09-03T09:32:18;20.10;66.80
20489;DHT22;10403;54.092;12.122;2022-09-03T09:34:47;20.10;66.40
20489;DHT22;10403;54.092;12.122;2022-09-03T09:37:18;20.10;66.40
20489;DHT22;10403;54.092;12.122;2022-09-03T09:39:59;20.20;66.60
20489;DHT22;10403;54.092;12.122;2022-09-03T09:42:27;20.30;65.90
20489;DHT22;10403;54.092;12.122;2022-09-03T09:44:56;20.20;65.40
20489;DHT22;10403;54.092;12.122;2022-09-03T09:47:38;20.30;65.50
20489;DHT22;10403;54.092;12.122;2022-09-03T09:50:16;20.40;65.50
20489;DHT22;10403;54.092;12.122;2022-09-03T09:53:09;20.50;64.90
20489;DHT22;10403;54.092;12.122;2022-09-03T09:55:50;20.50;64.90
20489;DHT22;10403;54.092;12.122;2022-09-03T09:58:23;20.60;63.30
20489;DHT22;10403;54.092;12.122;2022-09-03T10:00:59;20.60;63.30
20489;DHT22;10403;54.092;12.122;2022-09-03T10:03:32;20.60;62.90
20489;DHT22;10403;54.092;12.122;2022-09-03T10:06:05;20.70;62.80
20489;DHT22;10403;54.092;12.122;2022-09-03T10:09:05;20.70;62.40
20489;DHT22;10403;54.092;12.122;2022-09-03T10:11:37;20.80;61.40
20489;DHT22;10403;54.092;12.122;2022-09-03T10:14:18;20.90;61.50
20489;DHT22;10403;54.092;12.122;2022-09-03T10:16:53;20.90;61.60
20489;DHT22;10403;54.092;12.122;2022-09-03T10:19:35;21.00;61.40
20489;DHT22;10403;54.092;12.122;2022-09-03T10:22:16;21.10;60.90
20489;DHT22;10403;54.092;12.122;2022-09-03T10:24:58;21.10;60.20
20489;DHT22;10403;54.092;12.122;2022-09-03T10:27:28;21.00;59.80
20489;DHT22;10403;54.092;12.122;2022-09-03T10:30:01;21.10;60.10
20489;DHT22;10403;54.092;12.122;2022-09-03T10:32:52;21.10;60.20
20489;DHT22;10403;54.092;12.122;2022-09-03T10:35:35;21.10;59.90
20489;DHT22;10403;54.092;12.122;2022-09-03T10:38:09;21.10;59.30
20489;DHT22;10403;54.092;12.122;2022-09-03T10:41:03;21.10;58.80
20489;DHT22;10403;54.092;12.122;2022-09-03T10:47:10;20.90;58.80
20489;DHT22;10403;54.092;12.122;2022-09-03T10:55:57;20.90;58.50
20489;DHT22;10403;54.092;12.122;2022-09-03T10:59:18;20.90;58.30
20489;DHT22;10403;54.092;12.122;2022-09-03T11:07:20;20.90;58.20
20489;DHT22;10403;54.092;12.122;2022-09-03T11:10:03;20.90;58.00
20489;DHT22;10403;54.092;12.122;2022-09-03T11:12:39;21.00;58.10
20489;DHT22;10403;54.092;12.122;2022-09-03T11:15:23;21.00;58.00
20489;DHT22;10403;54.092;12.122;2022-09-03T11:20:36;21.00;58.10
20489;DHT22;10403;54.092;12.122;2022-09-03T11:23:06;21.00;58.00
20489;DHT22;10403;54.092;12.122;2022-09-03T11:25:57;21.00;58.20
20489;DHT22;10403;54.092;12.122;2022-09-03T11:37:18;21.10;57.60
20489;DHT22;10403;54.092;12.122;2022-09-03T11:40:02;21.10;57.50
20489;DHT22;10403;54.092;12.122;2022-09-03T11:42:35;21.20;57.50
20489;DHT22;10403;54.092;12.122;2022-09-03T11:45:33;21.40;57.40
20489;DHT22;10403;54.092;12.122;2022-09-03T11:48:17;21.50;57.10
20489;DHT22;10403;54.092;12.122;2022-09-03T11:51:03;21.60;56.50
20489;DHT22;10403;54.092;12.122;2022-09-03T11:53:34;21.60;56.20
20489;DHT22;10403;54.092;12.122;2022-09-03T11:58:35;21.70;56.30
20489;DHT22;10403;54.092;12.122;2022-09-03T12:01:09;21.70;56.40
20489;DHT22;10403;54.092;12.122;2022-09-03T12:04:00;21.70;56.80
20489;DHT22;10403;54.092;12.122;2022-09-03T12:13:00;21.50;56.30
20489;DHT22;10403;54.092;12.122;2022-09-03T12:18:49;21.40;56.40
20489;DHT22;10403;54.092;12.122;2022-09-03T12:21:18;21.40;56.60
20489;DHT22;10403;54.092;12.122;2022-09-03T12:23:49;21.40;56.80
20489;DHT22;10403;54.092;12.122;2022-09-03T12:26:25;21.40;56.80
20489;DHT22;10403;54.092;12.122;2022-09-03T12:28:57;21.40;56.80
20489;DHT22;10403;54.092;12.122;2022-09-03T12:31:32;21.30;56.50
20489;DHT22;10403;54.092;12.122;2022-09-03T12:34:13;21.30;56.50
20489;DHT22;10403;54.092;12.122;2022-09-03T12:36:49;21.30;56.60
20489;DHT22;10403;54.092;12.122;2022-09-03T12:42:17;21.40;56.50
20489;DHT22;10403;54.092;12.122;2022-09-03T12:44:49;21.40;56.30
20489;DHT22;10403;54.092;12.122;2022-09-03T12:47:19;21.50;56.00
20489;DHT22;10403;54.092;12.122;2022-09-03T12:50:20;21.60;55.90
20489;DHT22;10403;54.092;12.122;2022-09-03T12:52:52;21.70;55.80
20489;DHT22;10403;54.092;12.122;2022-09-03T12:55:26;21.80;55.70
20489;DHT22;10403;54.092;12.122;2022-09-03T13:00:30;21.70;55.70
20489;DHT22;10403;54.092;12.122;2022-09-03T13:03:15;21.60;55.80
20489;DHT22;10403;54.092;12.122;2022-09-03T13:05:50;21.50;56.00
20489;DHT22;10403;54.092;12.122;2022-09-03T13:08:28;21.40;56.10
20489;DHT22;10403;54.092;12.122;2022-09-03T13:11:00;21.40;56.10
20489;DHT22;10403;54.092;12.122;2022-09-03T13:13:33;21.40;56.10
20489;DHT22;10403;54.092;12.122;2022-09-03T13:30:07;21.70;54.70
20489;DHT22;10403;54.092;12.122;2022-09-03T13:33:00;21.80;54.60
20489;DHT22;10403;54.092;12.122;2022-09-03T13:38:23;21.90;54.40
20489;DHT22;10403;54.092;12.122;2022-09-03T13:41:27;22.10;54.50
20489;DHT22;10403;54.092;12.122;2022-09-03T13:47:17;22.30;54.30
20489;DHT22;10403;54.092;12.122;2022-09-03T13:50:15;22.30;53.60
20489;DHT22;10403;54.092;12.122;2022-09-03T13:55:45;22.30;53.00
20489;DHT22;10403;54.092;12.122;2022-09-03T13:58:29;22.30;53.20
20489;DHT22;10403;54.092;12.122;2022-09-03T14:01:16;22.40;53.30
20489;DHT22;10403;54.092;12.122;2022-09-03T14:04:16;22.40;53.00
20489;DHT22;10403;54.092;12.122;2022-09-03T14:06:56;22.40;53.20
20489;DHT22;10403;54.092;12.122;2022-09-03T14:09:38;22.50;53.40
20489;DHT22;10403;54.092;12.122;2022-09-03T14:12:34;22.50;53.40
20489;DHT22;10403;54.092;12.122;2022-09-03T14:15:17;22.60;53.70
20489;DHT22;10403;54.092;12.122;2022-09-03T14:17:55;22.60;53.90
20489;DHT22;10403;54.092;12.122;2022-09-03T14:20:29;22.40;53.60
20489;DHT22;10403;54.092;12.122;2022-09-03T14:23:19;22.30;53.40
20489;DHT22;10403;54.092;12.122;2022-09-03T14:26:20;22.20;53.60
20489;DHT22;10403;54.092;12.122;2022-09-03T14:40:39;21.90;54.60
20489;DHT22;10403;54.092;12.122;2022-09-03T14:53:17;21.60;55.60
20489;DHT22;10403;54.092;12.122;2022-09-03T14:56:12;21.60;55.80
20489;DHT22;10403;54.092;12.122;2022-09-03T15:01:35;21.70;56.00
20489;DHT22;10403;54.092;12.122;2022-09-03T15:04:22;21.70;55.90
20489;DHT22;10403;54.092;12.122;2022-09-03T15:07:29;21.60;55.70
20489;DHT22;10403;54.092;12.122;2022-09-03T15:10:04;21.60;55.80
20489;DHT22;10403;54.092;12.122;2022-09-03T15:12:47;21.60;55.80
20489;DHT22;10403;54.092;12.122;2022-09-03T15:15:31;21.50;55.90
20489;DHT22;10403;54.092;12.122;2022-09-03T15:21:23;21.40;55.80
20489;DHT22;10403;54.092;12.122;2022-09-03T15:26:47;21.30;55.30
20489;DHT22;10403;54.092;12.122;2022-09-03T15:30:14;21.30;55.60
20489;DHT22;10403;54.092;12.122;2022-09-03T15:33:32;21.40;58.40
20489;DHT22;10403;54.092;12.122;2022-09-03T15:36:21;21.30;60.60
20489;DHT22;10403;54.092;12.122;2022-09-03T15:38:54;21.20;62.40
20489;DHT22;10403;54.092;12.122;2022-09-03T15:41:58;21.10;63.00
20489;DHT22;10403;54.092;12.122;2022-09-03T15:44:59;21.00;64.10
20489;DHT22;10403;54.092;12.122;2022-09-03T15:59:11;20.90;67.00
20489;DHT22;10403;54.092;12.122;2022-09-03T16:01:50;20.90;66.90
20489;DHT22;10403;54.092;12.122;2022-09-03T16:07:27;20.70;67.10
20489;DHT22;10403;54.092;12.122;2022-09-03T16:10:12;20.70;67.00
20489;DHT22;10403;54.092;12.122;2022-09-03T16:16:10;20.70;66.90
20489;DHT22;10403;54.092;12.122;2022-09-03T16:22:06;20.70;67.00
20489;DHT22;10403;54.092;12.122;2022-09-03T16:24:51;20.60;67.00
20489;DHT22;10403;54.092;12.122;2022-09-03T16:30:12;20.40;67.20
20489;DHT22;10403;54.092;12.122;2022-09-03T16:32:53;20.40;67.60
20489;DHT22;10403;54.092;12.122;2022-09-03T16:44:36;20.50;67.30
20489;DHT22;10403;54.092;12.122;2022-09-03T16:47:54;20.50;68.10
20489;DHT22;10403;54.092;12.122;2022-09-03T16:53:19;20.40;67.60
20489;DHT22;10403;54.092;12.122;2022-09-03T16:56:30;20.40;68.10
20489;DHT22;10403;54.092;12.122;2022-09-03T17:19:08;19.90;70.90
20489;DHT22;10403;54.092;12.122;2022-09-03T17:30:20;19.70;72.20
20489;DHT22;10403;54.092;12.122;2022-09-03T17:33:54;19.70;72.70
20489;DHT22;10403;54.092;12.122;2022-09-03T17:36:28;19.60;72.80
20489;DHT22;10403;54.092;12.122;2022-09-03T17:42:03;19.50;73.20
20489;DHT22;10403;54.092;12.122;2022-09-03T17:44:49;19.50;73.50
20489;DHT22;10403;54.092;12.122;2022-09-03T17:50:31;19.40;74.20
20489;DHT22;10403;54.092;12.122;2022-09-03T17:53:18;19.40;74.60
20489;DHT22;10403;54.092;12.122;2022-09-03T17:56:11;19.20;74.80
20489;DHT22;10403;54.092;12.122;2022-09-03T17:58:54;19.20;75.50
20489;DHT22;10403;54.092;12.122;2022-09-03T18:01:39;19.20;75.80
20489;DHT22;10403;54.092;12.122;2022-09-03T18:04:28;19.20;76.30
20489;DHT22;10403;54.092;12.122;2022-09-03T18:10:23;19.00;77.30
20489;DHT22;10403;54.092;12.122;2022-09-03T18:16:33;18.90;77.90
20489;DHT22;10403;54.092;12.122;2022-09-03T18:25:35;18.80;78.80
20489;DHT22;10403;54.092;12.122;2022-09-03T18:31:36;18.80;81.10
20489;DHT22;10403;54.092;12.122;2022-09-03T18:34:32;18.80;80.40
20489;DHT22;10403;54.092;12.122;2022-09-03T18:37:25;18.80;80.60
20489;DHT22;10403;54.092;12.122;2022-09-03T18:40:20;18.70;80.80
20489;DHT22;10403;54.092;12.122;2022-09-03T18:46:12;18.60;81.50
20489;DHT22;10403;54.092;12.122;2022-09-03T18:49:46;18.60;82.00
20489;DHT22;10403;54.092;12.122;2022-09-03T18:52:55;18.60;82.20
20489;DHT22;10403;54.092;12.122;2022-09-03T19:02:38;18.40;82.70
20489;DHT22;10403;54.092;12.122;2022-09-03T19:05:46;18.40;83.00
20489;DHT22;10403;54.092;12.122;2022-09-03T19:15:37;18.40;83.40
20489;DHT22;10403;54.092;12.122;2022-09-03T19:21:58;18.30;83.50
20489;DHT22;10403;54.092;12.122;2022-09-03T19:24:58;18.30;83.40
20489;DHT22;10403;54.092;12.122;2022-09-03T19:28:10;18.30;83.40
20489;DHT22;10403;54.092;12.122;2022-09-03T19:31:43;18.30;83.40
20489;DHT22;10403;54.092;12.122;2022-09-03T19:34:57;18.30;83.60
20489;DHT22;10403;54.092;12.122;2022-09-03T19:38:29;18.30;83.70
20489;DHT22;10403;54.092;12.122;2022-09-03T19:44:59;18.30;83.70
20489;DHT22;10403;54.092;12.122;2022-09-03T19:48:11;18.30;83.70
20489;DHT22;10403;54.092;12.122;2022-09-03T19:51:09;18.30;83.80
20489;DHT22;10403;54.092;12.122;2022-09-03T19:54:02;18.20;83.70
20489;DHT22;10403;54.092;12.122;2022-09-03T19:56:50;18.20;83.80
20489;DHT22;10403;54.092;12.122;2022-09-03T19:59:40;18.20;83.80
20489;DHT22;10403;54.092;12.122;2022-09-03T20:02:32;18.30;83.90
20489;DHT22;10403;54.092;12.122;2022-09-03T20:05:20;18.30;83.90
20489;DHT22;10403;54.092;12.122;2022-09-03T20:08:07;18.30;83.90
20489;DHT22;10403;54.092;12.122;2022-09-03T20:10:55;18.20;83.80
20489;DHT22;10403;54.092;12.122;2022-09-03T20:13:24;18.30;84.10
20489;DHT22;10403;54.092;12.122;2022-09-03T20:16:11;18.20;84.00
20489;DHT22;10403;54.092;12.122;2022-09-03T20:19:07;18.20;84.00
20489;DHT22;10403;54.092;12.122;2022-09-03T20:24:45;18.20;84.10
20489;DHT22;10403;54.092;12.122;2022-09-03T20:27:49;18.20;84.10
20489;DHT22;10403;54.092;12.122;2022-09-03T20:30:33;18.30;84.10
20489;DHT22;10403;54.092;12.122;2022-09-03T20:33:24;18.20;84.10
20489;DHT22;10403;54.092;12.122;2022-09-03T20:39:31;18.30;84.50
20489;DHT22;10403;54.092;12.122;2022-09-03T20:45:32;18.20;84.50
20489;DHT22;10403;54.092;12.122;2022-09-03T20:51:10;18.30;84.70
20489;DHT22;10403;54.092;12.122;2022-09-03T20:59:31;18.30;84.60
20489;DHT22;10403;54.092;12.122;2022-09-03T21:13:59;18.20;84.80
20489;DHT22;10403;54.092;12.122;2022-09-03T21:22:36;18.20;85.00
20489;DHT22;10403;54.092;12.122;2022-09-03T21:25:30;18.30;85.10
20489;DHT22;10403;54.092;12.122;2022-09-03T21:28:12;18.20;85.20
20489;DHT22;10403;54.092;12.122;2022-09-03T21:30:46;18.20;85.20
20489;DHT22;10403;54.092;12.122;2022-09-03T21:33:29;18.20;85.20
20489;DHT22;10403;54.092;12.122;2022-09-03T21:36:11;18.20;85.20
20489;DHT22;10403;54.092;12.122;2022-09-03T21:38:54;18.20;85.20
20489;DHT22;10403;54.092;12.122;2022-09-03T21:41:37;18.20;85.30
20489;DHT22;10403;54.092;12.122;2022-09-03T21:44:16;18.20;85.30
20489;DHT22;10403;54.092;12.122;2022-09-03T21:47:01;18.20;85.30
20489;DHT22;10403;54.092;12.122;2022-09-03T21:50:25;18.20;85.20